sensor_id;sensor_type;location;lat;lon;timestamp;pressure;altitude;pressure_sealevel;temperature;humidity
72308;BME280;60257;42.638;23.376;2023-02-11T00:01:09;96257.25;;;-3.32;62.36
72308;BME280;60257;42.638;23.376;2023-02-11T00:03:36;96253.00;;;-3.40;61.58
72308;BME280;60257;42.638;23.376;2023-02-11T00:06:04;96256.75;;;-3.41;61.63
72308;BME280;60257;42.638;23.376;2023-02-11T00:08:30;96256.06;;;-3.36;61.79
72308;BME280;60257;42.638;23.376;2023-02-11T00:10:57;96250.69;;;-3.36;61.23
72308;BME280;60257;42.638;23.376;2023-02-11T00:13:24;96258.06;;;-3.32;61.19
72308;BME280;60257;42.638;23.376;2023-02-11T00:15:49;96254.00;;;-3.34;61.15
72308;BME280;60257;42.638;23.376;2023-02-11T00:18:15;96252.88;;;-3.27;60.38
72308;BME280;60257;42.638;23.376;2023-02-11T00:20:41;96256.06;;;-3.36;60.97
72308;BME280;60257;42.638;23.376;2023-02-11T00:23:07;96253.81;;;-3.39;61.08
72308;BME280;60257;42.638;23.376;2023-02-11T00:25:33;96247.75;;;-3.53;62.07
72308;BME280;60257;42.638;23.376;2023-02-11T00:28:01;96250.66;;;-3.55;61.75
72308;BME280;60257;42.638;23.376;2023-02-11T00:30:27;96248.19;;;-3.56;61.56
72308;BME280;60257;42.638;23.376;2023-02-11T00:32:52;96247.53;;;-3.52;61.38
72308;BME280;60257;42.638;23.376;2023-02-11T00:35:17;96242.69;;;-3.61;62.09
72308;BME280;60257;42.638;23.376;2023-02-11T00:37:43;96253.47;;;-3.68;61.48
72308;BME280;60257;42.638;23.376;2023-02-11T00:40:09;96245.03;;;-3.71;62.37
72308;BME280;60257;42.638;23.376;2023-02-11T00:42:34;96248.09;;;-3.68;62.06
72308;BME280;60257;42.638;23.376;2023-02-11T00:45:00;96225.34;;;-3.83;62.50
72308;BME280;60257;42.638;23.376;2023-02-11T00:47:26;96213.25;;;-3.93;62.79
72308;BME280;60257;42.638;23.376;2023-02-11T00:49:51;96247.06;;;-3.67;62.66
72308;BME280;60257;42.638;23.376;2023-02-11T00:52:17;96214.84;;;-3.85;62.19
72308;BME280;60257;42.638;23.376;2023-02-11T00:54:42;96245.63;;;-3.69;62.55
72308;BME280;60257;42.638;23.376;2023-02-11T00:57:08;96250.84;;;-3.74;62.84
72308;BME280;60257;42.638;23.376;2023-02-11T00:59:33;96244.94;;;-3.83;63.57
72308;BME280;60257;42.638;23.376;2023-02-11T01:01:59;96232.00;;;-3.93;63.25
72308;BME280;60257;42.638;23.376;2023-02-11T01:04:24;96248.34;;;-4.01;63.39
72308;BME280;60257;42.638;23.376;2023-02-11T01:06:49;96226.41;;;-4.16;63.05
72308;BME280;60257;42.638;23.376;2023-02-11T01:09:15;96240.03;;;-4.17;63.69
72308;BME280;60257;42.638;23.376;2023-02-11T01:11:40;96240.53;;;-4.27;63.86
72308;BME280;60257;42.638;23.376;2023-02-11T01:14:06;96239.88;;;-4.22;64.02
72308;BME280;60257;42.638;23.376;2023-02-11T01:16:31;96233.31;;;-4.27;64.49
72308;BME280;60257;42.638;23.376;2023-02-11T01:18:57;96230.03;;;-4.29;63.83
72308;BME280;60257;42.638;23.376;2023-02-11T01:21:23;96228.78;;;-4.33;64.25
72308;BME280;60257;42.638;23.376;2023-02-11T01:23:49;96234.84;;;-4.44;63.99
72308;BME280;60257;42.638;23.376;2023-02-11T01:26:15;96223.63;;;-4.59;64.46
72308;BME280;60257;42.638;23.376;2023-02-11T01:28:41;96235.16;;;-4.58;64.74
72308;BME280;60257;42.638;23.376;2023-02-11T01:31:06;96237.22;;;-4.60;64.70
72308;BME280;60257;42.638;23.376;2023-02-11T01:33:32;96210.91;;;-4.70;64.99
72308;BME280;60257;42.638;23.376;2023-02-11T01:36:04;96218.94;;;-4.70;65.22
72308;BME280;60257;42.638;23.376;2023-02-11T01:38:31;96214.84;;;-4.73;65.71
72308;BME280;60257;42.638;23.376;2023-02-11T01:41:03;96224.94;;;-4.75;64.98
72308;BME280;60257;42.638;23.376;2023-02-11T01:43:33;96222.28;;;-4.81;65.16
72308;BME280;60257;42.638;23.376;2023-02-11T01:51:03;96217.72;;;-4.74;64.33
72308;BME280;60257;42.638;23.376;2023-02-11T01:53:31;96221.19;;;-4.67;63.94
72308;BME280;60257;42.638;23.376;2023-02-11T01:56:17;96230.00;;;-4.60;63.38
72308;BME280;60257;42.638;23.376;2023-02-11T01:59:08;96221.16;;;-4.60;63.99
72308;BME280;60257;42.638;23.376;2023-02-11T02:01:38;96188.91;;;-4.79;64.41
72308;BME280;60257;42.638;23.376;2023-02-11T02:04:07;96205.75;;;-4.72;64.47
72308;BME280;60257;42.638;23.376;2023-02-11T02:06:39;96220.16;;;-4.66;64.22
72308;BME280;60257;42.638;23.376;2023-02-11T02:09:28;96208.06;;;-4.75;64.28
72308;BME280;60257;42.638;23.376;2023-02-11T02:11:56;96220.41;;;-4.74;64.36
72308;BME280;60257;42.638;23.376;2023-02-11T02:14:21;96214.31;;;-4.94;65.60
72308;BME280;60257;42.638;23.376;2023-02-11T02:16:47;96221.94;;;-4.98;66.19
72308;BME280;60257;42.638;23.376;2023-02-11T02:19:46;96230.59;;;-5.03;65.99
72308;BME280;60257;42.638;23.376;2023-02-11T02:36:14;96218.59;;;-5.45;67.04
72308;BME280;60257;42.638;23.376;2023-02-11T02:41:13;96216.94;;;-5.39;66.68
72308;BME280;60257;42.638;23.376;2023-02-11T02:43:43;96217.75;;;-5.32;67.24
72308;BME280;60257;42.638;23.376;2023-02-11T02:46:32;96213.84;;;-5.36;67.24
72308;BME280;60257;42.638;23.376;2023-02-11T02:48:59;96214.88;;;-5.37;67.00
72308;BME280;60257;42.638;23.376;2023-02-11T02:57:11;96203.16;;;-5.36;66.07
72308;BME280;60257;42.638;23.376;2023-02-11T03:06:04;96223.34;;;-5.47;66.56
72308;BME280;60257;42.638;23.376;2023-02-11T03:08:46;96219.22;;;-5.49;66.45
72308;BME280;60257;42.638;23.376;2023-02-11T03:11:17;96230.53;;;-5.47;66.70
72308;BME280;60257;42.638;23.376;2023-02-11T03:13:45;96209.56;;;-5.57;66.28
72308;BME280;60257;42.638;23.376;2023-02-11T03:16:22;96221.06;;;-5.50;66.49
72308;BME280;60257;42.638;23.376;2023-02-11T03:19:00;96234.03;;;-5.53;66.88
72308;BME280;60257;42.638;23.376;2023-02-11T03:21:30;96211.81;;;-5.47;65.87
72308;BME280;60257;42.638;23.376;2023-02-11T03:24:02;96223.91;;;-5.31;65.19
72308;BME280;60257;42.638;23.376;2023-02-11T03:26:47;96214.03;;;-5.31;65.35
72308;BME280;60257;42.638;23.376;2023-02-11T03:32:18;96216.91;;;-5.19;64.75
72308;BME280;60257;42.638;23.376;2023-02-11T03:34:59;96215.69;;;-5.30;65.66
72308;BME280;60257;42.638;23.376;2023-02-11T03:37:33;96221.06;;;-5.36;66.43
72308;BME280;60257;42.638;23.376;2023-02-11T03:40:04;96221.91;;;-5.43;66.27
72308;BME280;60257;42.638;23.376;2023-02-11T03:42:41;96215.72;;;-5.50;66.11
72308;BME280;60257;42.638;23.376;2023-02-11T03:45:11;96212.03;;;-5.55;66.37
72308;BME280;60257;42.638;23.376;2023-02-11T03:47:42;96220.91;;;-5.61;66.55
72308;BME280;60257;42.638;23.376;2023-02-11T03:50:11;96225.63;;;-5.63;66.48
72308;BME280;60257;42.638;23.376;2023-02-11T03:52:38;96212.50;;;-5.78;66.64
72308;BME280;60257;42.638;23.376;2023-02-11T03:55:08;96211.25;;;-5.75;66.99
72308;BME280;60257;42.638;23.376;2023-02-11T03:57:35;96213.94;;;-5.75;67.56
72308;BME280;60257;42.638;23.376;2023-02-11T04:00:01;96210.66;;;-5.77;67.60
72308;BME280;60257;42.638;23.376;2023-02-11T04:02:30;96210.66;;;-5.84;67.54
72308;BME280;60257;42.638;23.376;2023-02-11T04:04:57;96201.06;;;-5.98;67.94
72308;BME280;60257;42.638;23.376;2023-02-11T04:07:23;96215.84;;;-5.89;67.22
72308;BME280;60257;42.638;23.376;2023-02-11T04:09:49;96220.78;;;-5.99;66.99
72308;BME280;60257;42.638;23.376;2023-02-11T04:12:14;96222.63;;;-6.06;67.55
72308;BME280;60257;42.638;23.376;2023-02-11T04:14:40;96223.22;;;-6.17;68.26
72308;BME280;60257;42.638;23.376;2023-02-11T04:17:05;96217.50;;;-6.21;68.43
72308;BME280;60257;42.638;23.376;2023-02-11T04:19:31;96224.88;;;-6.23;68.37
72308;BME280;60257;42.638;23.376;2023-02-11T04:21:57;96218.72;;;-6.30;68.22
72308;BME280;60257;42.638;23.376;2023-02-11T04:24:22;96216.63;;;-6.35;67.48
72308;BME280;60257;42.638;23.376;2023-02-11T04:26:48;96233.28;;;-6.26;68.36
72308;BME280;60257;42.638;23.376;2023-02-11T04:29:13;96215.22;;;-6.37;68.79
72308;BME280;60257;42.638;23.376;2023-02-11T04:31:39;96218.09;;;-6.32;68.81
72308;BME280;60257;42.638;23.376;2023-02-11T04:34:04;96220.75;;;-6.32;68.70
72308;BME280;60257;42.638;23.376;2023-02-11T04:36:29;96224.44;;;-6.33;68.08
72308;BME280;60257;42.638;23.376;2023-02-11T04:38:55;96221.19;;;-6.35;68.16
72308;BME280;60257;42.638;23.376;2023-02-11T04:41:20;96201.03;;;-6.38;68.31
72308;BME280;60257;42.638;23.376;2023-02-11T04:43:46;96209.06;;;-6.44;68.91
72308;BME280;60257;42.638;23.376;2023-02-11T04:46:11;96208.03;;;-6.43;69.16
72308;BME280;60257;42.638;23.376;2023-02-11T04:48:37;96219.09;;;-6.40;69.30
72308;BME280;60257;42.638;23.376;2023-02-11T04:51:02;96210.28;;;-6.47;68.49
72308;BME280;60257;42.638;23.376;2023-02-11T04:53:28;96217.66;;;-6.42;68.48
72308;BME280;60257;42.638;23.376;2023-02-11T04:55:54;96172.06;;;-6.74;68.33
72308;BME280;60257;42.638;23.376;2023-02-11T04:58:19;96214.19;;;-6.43;68.00
72308;BME280;60257;42.638;23.376;2023-02-11T05:00:45;96208.81;;;-6.49;68.35
72308;BME280;60257;42.638;23.376;2023-02-11T05:03:11;96215.59;;;-6.53;68.72
72308;BME280;60257;42.638;23.376;2023-02-11T05:05:38;96210.47;;;-6.55;68.33
72308;BME280;60257;42.638;23.376;2023-02-11T05:08:05;96191.78;;;-6.62;68.18
72308;BME280;60257;42.638;23.376;2023-02-11T05:10:31;96187.84;;;-6.72;68.25
72308;BME280;60257;42.638;23.376;2023-02-11T05:12:56;96211.09;;;-6.59;68.36
72308;BME280;60257;42.638;23.376;2023-02-11T05:15:21;96196.28;;;-6.69;68.51
72308;BME280;60257;42.638;23.376;2023-02-11T05:17:47;96195.66;;;-6.77;69.07
72308;BME280;60257;42.638;23.376;2023-02-11T05:20:12;96204.09;;;-6.74;69.28
72308;BME280;60257;42.638;23.376;2023-02-11T05:22:38;96195.84;;;-6.72;69.18
72308;BME280;60257;42.638;23.376;2023-02-11T05:25:03;96189.09;;;-6.75;68.54
72308;BME280;60257;42.638;23.376;2023-02-11T05:27:29;96193.41;;;-6.74;68.52
72308;BME280;60257;42.638;23.376;2023-02-11T05:29:55;96187.44;;;-6.82;68.93
72308;BME280;60257;42.638;23.376;2023-02-11T05:32:20;96205.28;;;-6.83;68.84
72308;BME280;60257;42.638;23.376;2023-02-11T05:34:46;96204.88;;;-6.80;68.48
72308;BME280;60257;42.638;23.376;2023-02-11T05:37:12;96203.44;;;-6.76;68.84
72308;BME280;60257;42.638;23.376;2023-02-11T05:39:37;96209.81;;;-6.77;69.10
72308;BME280;60257;42.638;23.376;2023-02-11T05:42:03;96194.63;;;-6.83;69.00
72308;BME280;60257;42.638;23.376;2023-02-11T05:44:28;96198.69;;;-6.80;69.12
72308;BME280;60257;42.638;23.376;2023-02-11T05:46:54;96197.22;;;-6.96;68.71
72308;BME280;60257;42.638;23.376;2023-02-11T05:49:19;96210.38;;;-6.88;69.22
72308;BME280;60257;42.638;23.376;2023-02-11T05:51:45;96202.41;;;-6.81;69.29
72308;BME280;60257;42.638;23.376;2023-02-11T05:54:10;96194.81;;;-6.84;69.34
72308;BME280;60257;42.638;23.376;2023-02-11T05:56:36;96206.31;;;-6.77;69.22
72308;BME280;60257;42.638;23.376;2023-02-11T05:59:01;96207.53;;;-6.73;69.41
72308;BME280;60257;42.638;23.376;2023-02-11T06:01:27;96204.88;;;-6.73;69.03
72308;BME280;60257;42.638;23.376;2023-02-11T06:03:52;96211.28;;;-6.68;68.77
72308;BME280;60257;42.638;23.376;2023-02-11T06:06:19;96215.34;;;-6.65;68.56
72308;BME280;60257;42.638;23.376;2023-02-11T06:08:44;96218.91;;;-6.45;67.76
72308;BME280;60257;42.638;23.376;2023-02-11T06:11:10;96217.88;;;-6.37;67.33
72308;BME280;60257;42.638;23.376;2023-02-11T06:13:35;96222.19;;;-6.36;67.36
72308;BME280;60257;42.638;23.376;2023-02-11T06:16:01;96226.72;;;-6.24;67.52
72308;BME280;60257;42.638;23.376;2023-02-11T06:18:28;96215.22;;;-6.17;67.29
72308;BME280;60257;42.638;23.376;2023-02-11T06:20:54;96199.41;;;-6.12;66.80
72308;BME280;60257;42.638;23.376;2023-02-11T06:23:20;96219.75;;;-5.98;66.04
72308;BME280;60257;42.638;23.376;2023-02-11T06:25:45;96203.91;;;-6.00;66.22
72308;BME280;60257;42.638;23.376;2023-02-11T06:28:11;96204.34;;;-5.96;66.33
72308;BME280;60257;42.638;23.376;2023-02-11T06:30:37;96204.09;;;-5.88;66.86
72308;BME280;60257;42.638;23.376;2023-02-11T06:33:03;96207.34;;;-5.79;66.31
72308;BME280;60257;42.638;23.376;2023-02-11T06:35:29;96199.13;;;-5.78;66.07
72308;BME280;60257;42.638;23.376;2023-02-11T06:37:54;96201.78;;;-5.65;65.73
72308;BME280;60257;42.638;23.376;2023-02-11T06:40:20;96194.00;;;-5.66;65.58
72308;BME280;60257;42.638;23.376;2023-02-11T06:42:45;96211.44;;;-5.51;65.61
72308;BME280;60257;42.638;23.376;2023-02-11T06:45:11;96212.81;;;-5.42;65.03
72308;BME280;60257;42.638;23.376;2023-02-11T06:47:38;96213.22;;;-5.31;64.63
72308;BME280;60257;42.638;23.376;2023-02-11T06:50:06;96216.69;;;-5.24;64.56
72308;BME280;60257;42.638;23.376;2023-02-11T06:52:32;96191.03;;;-5.38;64.15
72308;BME280;60257;42.638;23.376;2023-02-11T06:54:58;96215.81;;;-5.05;64.82
72308;BME280;60257;42.638;23.376;2023-02-11T06:57:24;96219.31;;;-5.05;64.71
72308;BME280;60257;42.638;23.376;2023-02-11T06:59:49;96228.94;;;-4.97;65.14
72308;BME280;60257;42.638;23.376;2023-02-11T07:02:15;96206.94;;;-4.99;65.32
72308;BME280;60257;42.638;23.376;2023-02-11T07:04:41;96214.53;;;-5.03;65.00
72308;BME280;60257;42.638;23.376;2023-02-11T07:07:06;96210.81;;;-4.95;65.01
72308;BME280;60257;42.638;23.376;2023-02-11T07:09:32;96225.56;;;-4.79;65.29
72308;BME280;60257;42.638;23.376;2023-02-11T07:11:57;96209.09;;;-4.76;65.03
72308;BME280;60257;42.638;23.376;2023-02-11T07:14:23;96209.91;;;-4.76;64.38
72308;BME280;60257;42.638;23.376;2023-02-11T07:16:48;96217.13;;;-4.76;64.21
72308;BME280;60257;42.638;23.376;2023-02-11T07:19:14;96211.72;;;-4.70;64.72
72308;BME280;60257;42.638;23.376;2023-02-11T07:21:39;96187.63;;;-4.70;63.64
72308;BME280;60257;42.638;23.376;2023-02-11T07:24:06;96210.56;;;-4.42;63.52
72308;BME280;60257;42.638;23.376;2023-02-11T07:26:32;96202.69;;;-4.37;63.07
72308;BME280;60257;42.638;23.376;2023-02-11T07:28:58;96184.63;;;-4.48;62.86
72308;BME280;60257;42.638;23.376;2023-02-11T07:31:26;96193.50;;;-4.23;62.45
72308;BME280;60257;42.638;23.376;2023-02-11T07:33:53;96200.91;;;-4.18;63.35
72308;BME280;60257;42.638;23.376;2023-02-11T07:36:19;96192.19;;;-4.14;62.80
72308;BME280;60257;42.638;23.376;2023-02-11T07:38:45;96157.66;;;-4.22;62.86
72308;BME280;60257;42.638;23.376;2023-02-11T07:41:14;96168.91;;;-4.13;62.60
72308;BME280;60257;42.638;23.376;2023-02-11T07:43:40;96166.13;;;-4.00;62.18
72308;BME280;60257;42.638;23.376;2023-02-11T07:46:10;96165.63;;;-3.91;62.40
72308;BME280;60257;42.638;23.376;2023-02-11T07:48:36;96165.28;;;-3.76;61.64
72308;BME280;60257;42.638;23.376;2023-02-11T07:51:14;96171.78;;;-3.65;61.85
72308;BME280;60257;42.638;23.376;2023-02-11T07:53:39;96169.63;;;-3.57;61.43
72308;BME280;60257;42.638;23.376;2023-02-11T07:56:06;96164.13;;;-3.43;60.69
72308;BME280;60257;42.638;23.376;2023-02-11T07:58:33;96160.91;;;-3.52;60.23
72308;BME280;60257;42.638;23.376;2023-02-11T08:01:04;96162.88;;;-3.41;59.58
72308;BME280;60257;42.638;23.376;2023-02-11T08:03:30;96167.34;;;-3.35;59.12
72308;BME280;60257;42.638;23.376;2023-02-11T08:05:56;96166.56;;;-3.24;60.09
72308;BME280;60257;42.638;23.376;2023-02-11T08:08:25;96174.00;;;-2.89;57.98
72308;BME280;60257;42.638;23.376;2023-02-11T08:10:51;96153.06;;;-2.99;58.48
72308;BME280;60257;42.638;23.376;2023-02-11T08:13:17;96172.50;;;-2.85;57.03
72308;BME280;60257;42.638;23.376;2023-02-11T08:15:42;96159.97;;;-2.91;57.17
72308;BME280;60257;42.638;23.376;2023-02-11T08:18:07;96146.22;;;-2.95;57.93
72308;BME280;60257;42.638;23.376;2023-02-11T08:20:36;96156.28;;;-2.79;58.02
72308;BME280;60257;42.638;23.376;2023-02-11T08:23:01;96158.31;;;-2.74;58.21
72308;BME280;60257;42.638;23.376;2023-02-11T08:25:27;96165.84;;;-2.64;57.51
72308;BME280;60257;42.638;23.376;2023-02-11T08:27:52;96159.88;;;-2.66;57.10
72308;BME280;60257;42.638;23.376;2023-02-11T08:30:18;96158.84;;;-2.54;57.80
72308;BME280;60257;42.638;23.376;2023-02-11T08:32:44;96165.09;;;-2.42;56.36
72308;BME280;60257;42.638;23.376;2023-02-11T08:35:10;96154.72;;;-2.26;56.90
72308;BME280;60257;42.638;23.376;2023-02-11T08:37:37;96159.06;;;-2.25;55.64
72308;BME280;60257;42.638;23.376;2023-02-11T08:40:03;96163.72;;;-2.21;56.07
72308;BME280;60257;42.638;23.376;2023-02-11T08:42:29;96163.63;;;-2.14;55.46
72308;BME280;60257;42.638;23.376;2023-02-11T08:44:54;96156.88;;;-2.05;55.80
72308;BME280;60257;42.638;23.376;2023-02-11T08:47:21;96156.28;;;-2.07;55.59
72308;BME280;60257;42.638;23.376;2023-02-11T08:49:46;96159.19;;;-2.09;56.03
72308;BME280;60257;42.638;23.376;2023-02-11T08:52:12;96158.63;;;-2.11;55.14
72308;BME280;60257;42.638;23.376;2023-02-11T08:54:37;96165.97;;;-2.06;55.27
72308;BME280;60257;42.638;23.376;2023-02-11T08:57:03;96166.25;;;-1.96;55.70
72308;BME280;60257;42.638;23.376;2023-02-11T08:59:29;96164.25;;;-1.89;54.48
72308;BME280;60257;42.638;23.376;2023-02-11T09:01:54;96159.69;;;-1.77;54.27
72308;BME280;60257;42.638;23.376;2023-02-11T09:04:20;96153.13;;;-1.69;54.12
72308;BME280;60257;42.638;23.376;2023-02-11T09:06:46;96155.75;;;-1.63;54.70
72308;BME280;60257;42.638;23.376;2023-02-11T09:09:13;96158.41;;;-1.74;54.95
72308;BME280;60257;42.638;23.376;2023-02-11T09:11:40;96156.78;;;-1.64;54.82
72308;BME280;60257;42.638;23.376;2023-02-11T09:14:06;96149.41;;;-1.68;55.05
72308;BME280;60257;42.638;23.376;2023-02-11T09:16:34;96144.16;;;-1.63;55.11
72308;BME280;60257;42.638;23.376;2023-02-11T09:19:01;96146.50;;;-1.55;54.98
72308;BME280;60257;42.638;23.376;2023-02-11T09:21:28;96143.00;;;-1.56;55.06
72308;BME280;60257;42.638;23.376;2023-02-11T09:23:53;96137.25;;;-1.47;54.94
72308;BME280;60257;42.638;23.376;2023-02-11T09:26:24;96148.94;;;-1.53;55.72
72308;BME280;60257;42.638;23.376;2023-02-11T09:28:50;96140.97;;;-1.37;54.54
72308;BME280;60257;42.638;23.376;2023-02-11T09:31:18;96135.91;;;-1.22;54.64
72308;BME280;60257;42.638;23.376;2023-02-11T09:33:46;96132.38;;;-1.10;53.49
72308;BME280;60257;42.638;23.376;2023-02-11T09:36:15;96132.91;;;-0.97;59.19
72308;BME280;60257;42.638;23.376;2023-02-11T09:38:41;96123.81;;;-1.07;53.97
72308;BME280;60257;42.638;23.376;2023-02-11T09:43:57;96126.53;;;-0.79;53.14
72308;BME280;60257;42.638;23.376;2023-02-11T09:46:25;96101.75;;;-0.93;52.67
72308;BME280;60257;42.638;23.376;2023-02-11T09:48:55;96081.69;;;-0.85;52.19
72308;BME280;60257;42.638;23.376;2023-02-11T09:51:25;96116.09;;;-0.75;51.73
72308;BME280;60257;42.638;23.376;2023-02-11T09:53:57;96085.69;;;-0.59;51.83
72308;BME280;60257;42.638;23.376;2023-02-11T09:56:26;96094.09;;;-0.84;51.48
72308;BME280;60257;42.638;23.376;2023-02-11T09:58:52;96087.81;;;-0.90;52.29
72308;BME280;60257;42.638;23.376;2023-02-11T10:06:37;96084.53;;;-0.63;51.43
72308;BME280;60257;42.638;23.376;2023-02-11T10:14:49;96065.28;;;-0.39;51.40
72308;BME280;60257;42.638;23.376;2023-02-11T10:22:40;96046.13;;;-0.25;50.96
72308;BME280;60257;42.638;23.376;2023-02-11T10:25:22;96036.56;;;-0.16;50.04
72308;BME280;60257;42.638;23.376;2023-02-11T10:27:49;96030.22;;;-0.05;49.34
72308;BME280;60257;42.638;23.376;2023-02-11T10:30:21;96012.53;;;-0.18;49.51
72308;BME280;60257;42.638;23.376;2023-02-11T10:32:53;96012.28;;;-0.16;49.72
72308;BME280;60257;42.638;23.376;2023-02-11T10:35:21;96007.53;;;-0.09;48.97
72308;BME280;60257;42.638;23.376;2023-02-11T10:37:47;96005.16;;;-0.06;49.18
72308;BME280;60257;42.638;23.376;2023-02-11T10:40:28;95996.56;;;-0.03;47.86
72308;BME280;60257;42.638;23.376;2023-02-11T10:42:56;95969.63;;;0.19;47.72
72308;BME280;60257;42.638;23.376;2023-02-11T10:45:33;95991.91;;;0.31;47.06
72308;BME280;60257;42.638;23.376;2023-02-11T10:48:02;95978.84;;;0.23;46.78
72308;BME280;60257;42.638;23.376;2023-02-11T10:50:30;95974.78;;;0.21;46.96
72308;BME280;60257;42.638;23.376;2023-02-11T10:53:31;95960.34;;;0.32;45.67
72308;BME280;60257;42.638;23.376;2023-02-11T10:55:58;95961.22;;;0.37;45.55
72308;BME280;60257;42.638;23.376;2023-02-11T10:58:28;95961.53;;;0.41;45.33
72308;BME280;60257;42.638;23.376;2023-02-11T11:00:56;95950.81;;;0.46;45.14
72308;BME280;60257;42.638;23.376;2023-02-11T11:03:24;95952.31;;;0.37;45.05
72308;BME280;60257;42.638;23.376;2023-02-11T11:06:01;95962.34;;;0.42;45.08
72308;BME280;60257;42.638;23.376;2023-02-11T11:11:15;95951.09;;;0.50;45.04
72308;BME280;60257;42.638;23.376;2023-02-11T11:16:34;95929.13;;;0.63;44.32
72308;BME280;60257;42.638;23.376;2023-02-11T11:24:01;95940.91;;;1.05;44.04
72308;BME280;60257;42.638;23.376;2023-02-11T11:27:00;95920.75;;;1.18;44.12
72308;BME280;60257;42.638;23.376;2023-02-11T11:29:47;95924.84;;;1.26;43.37
72308;BME280;60257;42.638;23.376;2023-02-11T11:32:23;95929.16;;;1.22;43.03
72308;BME280;60257;42.638;23.376;2023-02-11T11:34:59;95922.91;;;1.16;43.11
72308;BME280;60257;42.638;23.376;2023-02-11T11:37:32;95925.50;;;1.38;42.75
72308;BME280;60257;42.638;23.376;2023-02-11T11:42:39;95913.06;;;1.37;43.63
72308;BME280;60257;42.638;23.376;2023-02-11T11:47:51;95899.88;;;1.45;42.88
72308;BME280;60257;42.638;23.376;2023-02-11T11:53:32;95906.38;;;1.44;43.58
72308;BME280;60257;42.638;23.376;2023-02-11T11:56:10;95899.34;;;1.48;44.06
72308;BME280;60257;42.638;23.376;2023-02-11T11:58:37;95885.03;;;1.48;42.17
72308;BME280;60257;42.638;23.376;2023-02-11T12:18:26;95865.50;;;1.78;43.37
72308;BME280;60257;42.638;23.376;2023-02-11T12:26:26;95856.34;;;1.89;43.23
72308;BME280;60257;42.638;23.376;2023-02-11T12:29:15;95846.66;;;2.03;42.45
72308;BME280;60257;42.638;23.376;2023-02-11T12:35:02;95834.03;;;2.24;42.90
72308;BME280;60257;42.638;23.376;2023-02-11T12:43:23;95816.69;;;2.15;42.21
72308;BME280;60257;42.638;23.376;2023-02-11T12:48:20;95819.16;;;2.31;40.69
72308;BME280;60257;42.638;23.376;2023-02-11T12:58:43;95804.56;;;2.38;39.91
72308;BME280;60257;42.638;23.376;2023-02-11T13:01:35;95810.00;;;2.53;38.77
72308;BME280;60257;42.638;23.376;2023-02-11T13:06:44;95810.25;;;2.56;38.47
72308;BME280;60257;42.638;23.376;2023-02-11T13:09:17;95797.28;;;2.58;39.01
72308;BME280;60257;42.638;23.376;2023-02-11T13:11:48;95781.81;;;2.39;39.42
72308;BME280;60257;42.638;23.376;2023-02-11T13:14:35;95792.34;;;2.30;38.97
72308;BME280;60257;42.638;23.376;2023-02-11T13:17:16;95793.97;;;2.26;39.88
72308;BME280;60257;42.638;23.376;2023-02-11T13:19:53;95790.72;;;2.29;40.06
72308;BME280;60257;42.638;23.376;2023-02-11T13:22:43;95788.31;;;2.38;39.76
72308;BME280;60257;42.638;23.376;2023-02-11T13:28:24;95785.88;;;2.41;40.19
72308;BME280;60257;42.638;23.376;2023-02-11T13:30:52;95789.41;;;2.57;38.76
72308;BME280;60257;42.638;23.376;2023-02-11T13:33:37;95780.44;;;2.41;39.48
72308;BME280;60257;42.638;23.376;2023-02-11T13:36:13;95780.47;;;2.31;40.00
72308;BME280;60257;42.638;23.376;2023-02-11T13:38:40;95795.06;;;2.30;39.19
72308;BME280;60257;42.638;23.376;2023-02-11T13:41:25;95775.03;;;2.36;38.60
72308;BME280;60257;42.638;23.376;2023-02-11T13:46:29;95773.69;;;2.23;38.94
72308;BME280;60257;42.638;23.376;2023-02-11T13:48:55;95761.78;;;2.29;38.82
72308;BME280;60257;42.638;23.376;2023-02-11T13:51:36;95771.53;;;2.51;38.78
72308;BME280;60257;42.638;23.376;2023-02-11T13:54:04;95767.78;;;2.62;37.96
72308;BME280;60257;42.638;23.376;2023-02-11T13:56:36;95764.78;;;2.63;38.22
72308;BME280;60257;42.638;23.376;2023-02-11T14:13:24;95752.84;;;2.44;37.62
72308;BME280;60257;42.638;23.376;2023-02-11T14:16:12;95748.00;;;2.46;37.37
72308;BME280;60257;42.638;23.376;2023-02-11T14:23:52;95747.97;;;2.41;37.79
72308;BME280;60257;42.638;23.376;2023-02-11T14:31:51;95737.69;;;2.38;36.77
72308;BME280;60257;42.638;23.376;2023-02-11T14:39:58;95728.47;;;2.09;38.34
72308;BME280;60257;42.638;23.376;2023-02-11T14:42:28;95748.72;;;2.06;38.90
72308;BME280;60257;42.638;23.376;2023-02-11T14:44:58;95746.81;;;2.02;39.24
72308;BME280;60257;42.638;23.376;2023-02-11T14:47:39;95732.50;;;2.01;39.63
72308;BME280;60257;42.638;23.376;2023-02-11T14:50:10;95733.03;;;1.98;39.55
72308;BME280;60257;42.638;23.376;2023-02-11T14:52:39;95736.28;;;2.00;39.53
72308;BME280;60257;42.638;23.376;2023-02-11T14:58:13;95738.50;;;2.23;39.13
72308;BME280;60257;42.638;23.376;2023-02-11T15:01:23;95743.63;;;2.25;39.79
72308;BME280;60257;42.638;23.376;2023-02-11T15:03:51;95737.97;;;2.31;39.28
72308;BME280;60257;42.638;23.376;2023-02-11T15:06:24;95732.81;;;2.30;39.17
72308;BME280;60257;42.638;23.376;2023-02-11T15:08:54;95742.56;;;2.36;39.54
72308;BME280;60257;42.638;23.376;2023-02-11T15:11:24;95729.53;;;2.18;39.36
72308;BME280;60257;42.638;23.376;2023-02-11T15:13:50;95739.00;;;2.10;39.73
72308;BME280;60257;42.638;23.376;2023-02-11T15:16:20;95718.38;;;1.94;40.18
72308;BME280;60257;42.638;23.376;2023-02-11T15:18:55;95726.78;;;1.92;41.18
72308;BME280;60257;42.638;23.376;2023-02-11T15:21:22;95731.91;;;1.94;41.02
72308;BME280;60257;42.638;23.376;2023-02-11T15:24:17;95717.56;;;1.88;40.97
72308;BME280;60257;42.638;23.376;2023-02-11T15:26:53;95718.09;;;1.80;40.94
72308;BME280;60257;42.638;23.376;2023-02-11T15:29:19;95680.19;;;1.65;41.42
72308;BME280;60257;42.638;23.376;2023-02-11T15:32:02;95715.69;;;1.84;41.88
72308;BME280;60257;42.638;23.376;2023-02-11T15:34:28;95710.22;;;1.74;42.41
72308;BME280;60257;42.638;23.376;2023-02-11T15:36:54;95682.28;;;1.43;42.73
72308;BME280;60257;42.638;23.376;2023-02-11T15:39:39;95705.59;;;1.54;42.81
72308;BME280;60257;42.638;23.376;2023-02-11T15:42:19;95700.94;;;1.44;42.95